Time;durP1;ratioP1;P1;durP2;ratioP2;P2;SDS_P1;SDS_P2;PMS_P1;PMS_P2;Temp;Humidity;BMP_temperature;BMP_pressure;BME280_temperature;BME280_humidity;BME280_pressure;Samples;Min_cycle;Max_cycle;Signal;HPM_P1;HPM_P2
2020/12/31 00:01:25;;;;;;;48.35;25.15;;;;;;;2.93;71.81;99271.73;118482;1147;104454;-71
2020/12/31 00:03:54;;;;;;;46.97;25.17;;;;;;;2.92;72.44;99267.41;118429;1147;104550;-71
2020/12/31 00:06:23;;;;;;;49.20;25.60;;;;;;;2.91;71.51;99271.03;118738;1147;104623;-70
2020/12/31 00:08:51;;;;;;;51.00;24.97;;;;;;;2.85;72.79;99266.25;118907;1146;104583;-73
2020/12/31 00:11:19;;;;;;;45.03;23.10;;;;;;;2.80;72.65;99269.28;118619;1147;104497;-73
2020/12/31 00:13:47;;;;;;;41.03;21.97;;;;;;;2.77;72.64;99277.42;118570;1146;104479;-74
2020/12/31 00:16:15;;;;;;;42.33;23.27;;;;;;;2.75;72.64;99277.58;118987;1147;104562;-73
2020/12/31 00:18:43;;;;;;;41.27;22.70;;;;;;;2.77;71.55;99285.33;118964;1147;104592;-73
2020/12/31 00:21:12;;;;;;;43.27;22.30;;;;;;;2.81;72.44;99291.18;118826;1147;104871;-74
2020/12/31 00:23:40;;;;;;;44.87;24.63;;;;;;;2.79;72.92;99287.84;119008;1147;104548;-73
2020/12/31 00:26:08;;;;;;;39.30;21.83;;;;;;;2.73;71.67;99291.81;118968;1147;104722;-73
2020/12/31 00:28:36;;;;;;;44.47;22.47;;;;;;;2.61;73.00;99293.66;118989;1147;104463;-72
2020/12/31 00:31:04;;;;;;;47.87;24.20;;;;;;;2.59;72.97;99284.23;118939;1147;104489;-73
2020/12/31 00:33:33;;;;;;;44.43;21.17;;;;;;;2.58;72.53;99283.41;118952;1147;104556;-73
2020/12/31 00:36:01;;;;;;;42.83;22.07;;;;;;;2.58;72.73;99291.30;118912;1147;104621;-73
2020/12/31 00:38:29;;;;;;;40.60;20.75;;;;;;;2.61;72.82;99291.03;118889;1147;104522;-72
2020/12/31 00:40:59;;;;;;;41.50;22.47;;;;;;;2.54;71.94;99289.86;118903;1146;104553;-72
2020/12/31 00:43:27;;;;;;;47.70;25.40;;;;;;;2.54;71.42;99289.86;118977;1147;104549;-72
2020/12/31 00:45:55;;;;;;;47.80;25.10;;;;;;;2.51;72.23;99300.66;119026;1147;104577;-72
2020/12/31 00:48:23;;;;;;;38.73;19.50;;;;;;;2.50;71.86;99301.60;118670;1147;104579;-74
2020/12/31 00:50:52;;;;;;;52.73;24.47;;;;;;;2.49;73.18;99297.31;118812;1148;104468;-73
2020/12/31 00:53:22;;;;;;;44.73;22.33;;;;;;;2.48;73.33;99301.75;118858;1147;104654;-72
2020/12/31 00:55:50;;;;;;;48.30;26.20;;;;;;;2.49;71.82;99302.58;118712;1147;104630;-71
2020/12/31 00:58:19;;;;;;;45.70;23.03;;;;;;;2.43;72.47;99303.91;118733;1148;104541;-72
2020/12/31 01:00:47;;;;;;;54.23;28.70;;;;;;;2.42;72.61;99298.77;118456;1147;104512;-73
2020/12/31 01:03:16;;;;;;;56.33;29.90;;;;;;;2.46;72.75;99305.45;118696;1147;104550;-72
2020/12/31 01:05:44;;;;;;;44.30;20.37;;;;;;;2.43;71.69;99310.98;118835;1147;104580;-71
2020/12/31 01:08:12;;;;;;;36.20;19.00;;;;;;;2.46;73.36;99319.44;118547;1147;104705;-72
2020/12/31 01:10:40;;;;;;;32.50;16.23;;;;;;;2.49;73.42;99308.67;118531;1147;104575;-72
2020/12/31 01:13:08;;;;;;;34.00;16.90;;;;;;;2.53;72.67;99314.53;118790;1147;104492;-73
2020/12/31 01:15:36;;;;;;;31.93;15.93;;;;;;;2.54;73.35;99314.41;118554;1147;104630;-73
2020/12/31 01:18:04;;;;;;;30.77;16.57;;;;;;;2.55;73.18;99313.44;118926;1147;104537;-72
2020/12/31 01:20:33;;;;;;;39.13;19.07;;;;;;;2.57;72.74;99313.31;118681;1147;104476;-72
2020/12/31 01:23:01;;;;;;;74.75;31.05;;;;;;;2.52;72.67;99318.11;118659;1148;104479;-72
2020/12/31 01:25:29;;;;;;;38.77;18.20;;;;;;;2.51;72.87;99321.72;118625;1147;104619;-72
2020/12/31 01:27:57;;;;;;;60.03;26.93;;;;;;;2.54;73.60;99321.45;118968;1147;104480;-72
2020/12/31 01:30:25;;;;;;;46.70;19.70;;;;;;;2.58;72.66;99316.78;118499;1148;104541;-73
2020/12/31 01:32:53;;;;;;;46.30;22.17;;;;;;;2.58;73.10;99320.27;118420;1147;104582;-71
2020/12/31 01:35:21;;;;;;;55.97;27.70;;;;;;;2.58;73.58;99324.68;118428;1148;104546;-72
2020/12/31 01:37:50;;;;;;;46.93;22.07;;;;;;;2.56;73.56;99327.46;118627;1148;104563;-71
2020/12/31 01:40:18;;;;;;;36.00;16.85;;;;;;;2.57;72.59;99326.48;118837;1146;104545;-72
2020/12/31 01:42:46;;;;;;;33.67;15.90;;;;;;;2.52;73.66;99323.37;118500;1147;104520;-72
2020/12/31 01:45:14;;;;;;;29.73;14.33;;;;;;;2.54;72.81;99332.84;118827;1147;104576;-72
2020/12/31 01:47:43;;;;;;;30.53;16.13;;;;;;;2.55;73.50;99323.14;118482;1147;104566;-72
2020/12/31 01:50:12;;;;;;;27.33;13.77;;;;;;;2.61;73.62;99335.80;118674;1147;104492;-72
2020/12/31 01:52:40;;;;;;;23.70;12.40;;;;;;;2.64;73.13;99326.84;118907;1148;104556;-73
2020/12/31 01:55:08;;;;;;;23.50;12.20;;;;;;;2.66;72.50;99341.55;118684;1147;104659;-73
2020/12/31 01:57:36;;;;;;;26.03;13.43;;;;;;;2.65;72.41;99339.03;118802;1147;104553;-73
2020/12/31 02:00:05;;;;;;;29.83;13.93;;;;;;;2.58;72.65;99336.08;118929;1147;104479;-73
2020/12/31 02:02:40;;;;;;;23.13;10.77;;;;;;;2.58;73.17;99343.11;118918;1147;104477;-72
2020/12/31 02:05:09;;;;;;;20.70;10.73;;;;;;;2.57;73.61;99347.55;118967;1147;104554;-73
2020/12/31 02:07:37;;;;;;;18.70;10.03;;;;;;;2.60;72.74;99356.98;118953;1147;104831;-73
2020/12/31 02:10:06;;;;;;;23.77;12.00;;;;;;;2.64;73.18;99348.73;118886;1147;104559;-72
2020/12/31 02:12:34;;;;;;;22.35;11.40;;;;;;;2.65;72.76;99358.30;118838;1147;104476;-72
2020/12/31 02:15:04;;;;;;;23.10;11.95;;;;;;;2.69;72.65;99349.17;118781;1147;104610;-73
2020/12/31 02:17:32;;;;;;;23.77;11.50;;;;;;;2.71;73.09;99357.82;118739;1147;104541;-73
2020/12/31 02:20:00;;;;;;;22.95;11.40;;;;;;;2.72;73.78;99351.58;118546;1147;104547;-72
2020/12/31 02:22:30;;;;;;;21.83;10.63;;;;;;;2.73;72.90;99342.73;118448;1148;104915;-73
2020/12/31 02:24:58;;;;;;;23.47;11.47;;;;;;;2.74;72.66;99348.82;118529;1147;104543;-73
2020/12/31 02:27:26;;;;;;;21.17;11.13;;;;;;;2.71;73.97;99355.19;118188;1146;104611;-72
2020/12/31 02:29:54;;;;;;;24.47;12.43;;;;;;;2.77;73.26;99351.19;118549;1147;104480;-73
2020/12/31 02:32:22;;;;;;;22.70;11.70;;;;;;;2.86;73.35;99353.07;118686;1148;104714;-73
2020/12/31 02:34:51;;;;;;;21.80;11.50;;;;;;;2.92;73.50;99357.83;118944;1148;104611;-73
2020/12/31 02:37:19;;;;;;;21.07;10.77;;;;;;;2.91;72.25;99357.98;118953;1148;104549;-72
2020/12/31 02:39:47;;;;;;;25.97;11.57;;;;;;;2.85;72.74;99351.42;118845;1148;104495;-71
2020/12/31 02:42:15;;;;;;;23.67;10.70;;;;;;;2.87;73.30;99351.30;118568;1147;104479;-77
2020/12/31 02:44:43;;;;;;;23.40;11.35;;;;;;;2.82;73.62;99356.09;118858;1147;104643;-73
2020/12/31 02:47:11;;;;;;;22.00;11.07;;;;;;;2.78;74.08;99349.41;118839;1147;104521;-74
2020/12/31 02:49:39;;;;;;;23.87;11.87;;;;;;;2.81;73.35;99349.14;118703;1147;104553;-74
2020/12/31 02:52:07;;;;;;;23.00;11.50;;;;;;;2.90;72.94;99356.30;118904;1148;104482;-73
2020/12/31 02:54:35;;;;;;;23.30;12.50;;;;;;;2.91;73.97;99356.17;118974;1147;104973;-73
2020/12/31 02:57:03;;;;;;;22.15;11.10;;;;;;;2.91;72.60;99357.98;118637;1147;104662;-74
2020/12/31 02:59:31;;;;;;;25.37;11.80;;;;;;;2.87;72.40;99361.84;118704;1147;104601;-73
2020/12/31 03:01:59;;;;;;;21.30;10.50;;;;;;;2.87;73.24;99349.48;118509;1147;104460;-73
2020/12/31 03:04:27;;;;;;;20.43;10.67;;;;;;;2.89;72.78;99349.38;118490;1147;104569;-73
2020/12/31 03:06:56;;;;;;;20.60;11.20;;;;;;;2.92;73.91;99335.92;118760;1145;104457;-72
2020/12/31 03:09:24;;;;;;;23.53;11.00;;;;;;;2.91;72.41;99334.27;118892;1147;104479;-72
2020/12/31 03:11:52;;;;;;;18.27;10.43;;;;;;;2.94;73.13;99344.53;118671;1147;104563;-72
2020/12/31 03:14:20;;;;;;;20.20;11.03;;;;;;;2.94;73.06;99349.80;118877;1148;104534;-73
2020/12/31 03:16:48;;;;;;;23.57;11.37;;;;;;;2.93;73.17;99353.42;118810;1147;104480;-73
2020/12/31 03:19:16;;;;;;;21.50;11.15;;;;;;;2.91;73.11;99360.62;118783;1147;104559;-73
2020/12/31 03:21:44;;;;;;;19.87;9.70;;;;;;;2.93;73.16;99353.42;118824;1147;104585;-72
2020/12/31 03:24:12;;;;;;;21.33;10.27;;;;;;;2.88;73.23;99359.05;118929;1147;104532;-72
2020/12/31 03:26:40;;;;;;;22.30;12.60;;;;;;;2.86;73.32;99360.15;118951;1147;104605;-72
2020/12/31 03:29:08;;;;;;;24.50;13.15;;;;;;;2.89;72.93;99358.10;118502;1147;104460;-74
2020/12/31 03:31:36;;;;;;;22.75;11.55;;;;;;;2.94;73.80;99368.25;118444;1147;104552;-73
2020/12/31 03:34:05;;;;;;;23.33;11.93;;;;;;;2.92;72.95;99367.55;118898;1148;104545;-73
2020/12/31 03:36:33;;;;;;;23.50;12.10;;;;;;;2.90;73.50;99374.73;118917;1147;104466;-73
2020/12/31 03:39:01;;;;;;;24.43;11.30;;;;;;;2.89;74.04;99373.08;118542;1147;104554;-72
2020/12/31 03:41:29;;;;;;;24.30;10.83;;;;;;;2.89;73.71;99370.45;118436;1147;104492;-73
2020/12/31 03:43:58;;;;;;;22.53;12.57;;;;;;;2.91;73.54;99377.25;118488;1148;104589;-73
2020/12/31 03:46:26;;;;;;;21.23;11.50;;;;;;;2.99;73.74;99379.26;118449;1147;104557;-73
2020/12/31 03:48:54;;;;;;;21.45;11.60;;;;;;;3.05;73.66;99385.83;118448;1147;104472;-73
2020/12/31 03:51:22;;;;;;;21.83;11.23;;;;;;;3.04;73.06;99381.50;118455;1147;104454;-73
2020/12/31 03:53:50;;;;;;;24.50;11.70;;;;;;;2.99;72.40;99378.44;118678;1147;104620;-73
2020/12/31 03:56:19;;;;;;;22.83;12.20;;;;;;;2.98;73.00;99382.84;118471;1147;104472;-73
2020/12/31 03:58:47;;;;;;;23.63;11.67;;;;;;;3.01;72.53;99382.61;118775;1147;104503;-72
2020/12/31 04:01:15;;;;;;;25.33;11.90;;;;;;;3.06;72.92;99388.34;118704;1147;104480;-72
2020/12/31 04:03:43;;;;;;;24.50;12.00;;;;;;;3.15;72.67;99389.37;118743;1147;104613;-72
2020/12/31 04:06:13;;;;;;;20.57;10.40;;;;;;;3.19;73.65;99387.31;118838;1148;104504;-72
2020/12/31 04:08:42;;;;;;;19.50;10.80;;;;;;;3.21;73.55;99391.48;118763;1147;104477;-72
2020/12/31 04:11:10;;;;;;;20.00;11.00;;;;;;;3.20;72.33;99394.28;118776;1147;104479;-73
2020/12/31 04:13:38;;;;;;;23.80;13.00;;;;;;;3.19;72.71;99393.42;118878;1147;104899;-73
2020/12/31 04:16:07;;;;;;;27.17;13.70;;;;;;;3.11;72.77;99385.31;118942;1147;104532;-72
2020/12/31 04:18:35;;;;;;;28.93;12.77;;;;;;;3.12;73.82;99392.27;118830;1147;104476;-72
2020/12/31 04:21:03;;;;;;;23.93;11.60;;;;;;;3.09;72.78;99390.70;118744;1147;104527;-72
2020/12/31 04:23:31;;;;;;;60.03;27.23;;;;;;;3.08;72.80;99390.83;118863;1147;104589;-72
2020/12/31 04:25:59;;;;;;;46.80;22.77;;;;;;;3.08;73.08;99394.32;118922;1147;104640;-72
2020/12/31 04:28:27;;;;;;;31.40;15.97;;;;;;;3.03;72.75;99391.22;118605;1148;104549;-74
2020/12/31 04:30:55;;;;;;;29.53;15.43;;;;;;;2.98;73.43;99393.38;118645;1147;104473;-73
2020/12/31 04:33:23;;;;;;;25.97;13.10;;;;;;;2.93;72.43;99403.48;118975;1147;104572;-73
2020/12/31 04:35:52;;;;;;;29.20;14.97;;;;;;;2.90;73.53;99406.36;118917;1147;104812;-71
2020/12/31 04:38:20;;;;;;;25.70;12.83;;;;;;;2.84;74.07;99415.59;118489;1147;104449;-72
2020/12/31 04:40:48;;;;;;;22.95;10.90;;;;;;;2.84;73.44;99412.13;118509;1147;104474;-72
2020/12/31 04:43:17;;;;;;;28.30;17.00;;;;;;;2.87;73.62;99412.73;118485;1147;104938;-72
2020/12/31 04:45:45;;;;;;;30.73;18.53;;;;;;;2.87;73.21;99417.16;118558;1147;104539;-72
2020/12/31 04:48:24;;;;;;;22.30;12.67;;;;;;;2.90;73.34;99419.53;118751;1147;104594;-71
2020/12/31 04:50:58;;;;;;;21.53;11.13;;;;;;;2.97;73.04;99418.08;118831;1147;104509;-70
2020/12/31 04:53:26;;;;;;;16.50;8.77;;;;;;;3.00;73.56;99420.45;118915;1147;104589;-71
2020/12/31 04:55:54;;;;;;;23.60;11.90;;;;;;;2.94;73.25;99429.72;118982;1147;104551;-70
2020/12/31 04:58:23;;;;;;;25.07;12.17;;;;;;;2.89;72.57;99428.42;118884;1147;104481;-72
2020/12/31 05:00:51;;;;;;;17.30;10.03;;;;;;;2.77;74.20;99435.48;118709;1147;104546;-73
2020/12/31 05:03:19;;;;;;;20.10;11.03;;;;;;;2.73;73.86;99432.28;118812;1148;104554;-72
2020/12/31 05:05:50;;;;;;;24.43;14.60;;;;;;;2.75;72.78;99435.63;118943;1147;104482;-73
2020/12/31 05:08:25;;;;;;;20.83;12.47;;;;;;;2.79;74.08;99443.27;118934;1148;104474;-72
2020/12/31 05:10:58;;;;;;;21.50;11.83;;;;;;;2.83;74.36;99439.42;118953;1147;104479;-72
2020/12/31 05:13:28;;;;;;;21.00;11.90;;;;;;;2.86;73.25;99453.20;118987;1147;104615;-72
2020/12/31 05:15:56;;;;;;;20.75;10.55;;;;;;;2.88;73.83;99447.80;118962;1148;104499;-72
2020/12/31 05:18:25;;;;;;;27.33;14.07;;;;;;;2.87;74.26;99446.15;118708;1147;104565;-71
2020/12/31 05:20:54;;;;;;;20.50;11.67;;;;;;;2.84;73.32;99444.58;118973;1147;104509;-71
2020/12/31 05:23:24;;;;;;;20.30;11.23;;;;;;;2.86;73.54;99442.66;118962;1147;104618;-71
2020/12/31 05:25:53;;;;;;;28.30;14.37;;;;;;;2.87;73.91;99448.78;118970;1147;104509;-73
2020/12/31 05:28:26;;;;;;;22.70;11.35;;;;;;;2.84;74.03;99451.66;118722;1147;104595;-72
2020/12/31 05:30:55;;;;;;;27.53;13.63;;;;;;;2.85;72.83;99453.31;118990;1147;104463;-71
2020/12/31 05:33:31;;;;;;;23.43;11.57;;;;;;;2.87;73.82;99449.61;119009;1147;104528;-73
2020/12/31 05:36:18;;;;;;;21.27;9.97;;;;;;;2.85;74.12;99445.41;118961;1148;104483;-73
2020/12/31 05:39:01;;;;;;;41.40;19.90;;;;;;;2.82;74.12;99456.21;118703;1147;104476;-71
2020/12/31 05:41:30;;;;;;;32.40;15.60;;;;;;;2.82;74.46;99461.48;118659;1146;104460;-71
2020/12/31 05:44:00;;;;;;;27.40;12.60;;;;;;;2.87;73.42;99464.59;118641;1147;104712;-72
2020/12/31 05:46:30;;;;;;;47.33;26.47;;;;;;;2.92;73.00;99460.59;118480;1147;104622;-72
2020/12/31 05:49:00;;;;;;;39.87;21.33;;;;;;;2.98;73.96;99456.62;118555;1147;104531;-72
2020/12/31 05:51:29;;;;;;;41.43;23.27;;;;;;;3.00;73.63;99465.25;118904;1147;104558;-72
2020/12/31 05:54:06;;;;;;;30.73;14.97;;;;;;;3.02;73.09;99465.99;118699;1147;104533;-73
2020/12/31 05:56:36;;;;;;;54.13;28.90;;;;;;;2.99;73.95;99468.86;118987;1147;104625;-72
2020/12/31 05:59:21;;;;;;;65.13;36.13;;;;;;;2.98;72.77;99471.61;118944;1147;104486;-72
2020/12/31 06:01:56;;;;;;;75.33;39.30;;;;;;;2.93;72.86;99472.83;118812;1147;104454;-73
2020/12/31 06:04:46;;;;;;;479.65;286.00;;;;;;;2.93;74.27;99480.73;118327;1147;104618;-73
2020/12/31 06:07:32;;;;;;;407.70;257.37;;;;;;;2.95;73.78;99478.81;118987;1147;104555;-72
2020/12/31 06:10:05;;;;;;;234.90;118.03;;;;;;;2.92;73.00;99473.77;118986;1147;104474;-72
2020/12/31 06:12:47;;;;;;;104.47;51.23;;;;;;;2.98;74.55;99471.61;118910;1147;104450;-74
2020/12/31 06:15:18;;;;;;;142.93;71.50;;;;;;;3.05;73.45;99476.27;118827;1148;104627;-71
2020/12/31 06:17:47;;;;;;;110.95;46.92;;;;;;;3.12;73.31;99479.26;118971;1147;104520;-71
2020/12/31 06:20:17;;;;;;;69.03;30.37;;;;;;;3.11;73.25;99486.30;118966;1147;104546;-71
2020/12/31 06:23:04;;;;;;;58.17;30.07;;;;;;;3.06;73.54;99485.86;118879;1148;104495;-72
2020/12/31 06:25:40;;;;;;;42.80;20.50;;;;;;;3.03;73.07;99494.00;118872;1147;104611;-74
2020/12/31 06:28:14;;;;;;;45.63;26.57;;;;;;;3.03;73.41;99485.27;118971;1147;104594;-72
2020/12/31 06:30:44;;;;;;;44.20;23.33;;;;;;;3.06;73.17;99491.13;118873;1147;104528;-74
2020/12/31 06:33:17;;;;;;;39.87;22.07;;;;;;;3.04;73.65;99490.42;118571;1147;104861;-72
2020/12/31 06:35:49;;;;;;;40.07;23.93;;;;;;;3.09;72.92;99497.95;118998;1147;104609;-71
2020/12/31 06:38:29;;;;;;;62.80;34.70;;;;;;;3.16;73.35;99501.77;118802;1147;104543;-71
2020/12/31 06:40:57;;;;;;;42.60;22.00;;;;;;;3.24;74.10;99503.78;118844;1147;104457;-70
2020/12/31 06:43:32;;;;;;;87.57;46.53;;;;;;;3.29;73.30;99506.86;118671;1147;104485;-72
2020/12/31 06:46:01;;;;;;;59.70;31.63;;;;;;;3.31;73.72;99511.06;118925;1147;104517;-71
2020/12/31 06:48:39;;;;;;;44.07;19.97;;;;;;;3.33;73.97;99508.31;118654;1147;104547;-71
2020/12/31 06:51:09;;;;;;;46.87;26.03;;;;;;;3.31;74.39;99510.20;118741;1147;104478;-71
2020/12/31 06:53:39;;;;;;;42.80;23.10;;;;;;;3.34;74.10;99499.42;118572;1147;104510;-72
2020/12/31 06:56:10;;;;;;;34.10;18.67;;;;;;;3.33;73.96;99492.49;118992;1147;104515;-70
2020/12/31 06:58:39;;;;;;;48.00;30.23;;;;;;;3.30;74.01;99496.20;118761;1148;104487;-69
2020/12/31 07:01:27;;;;;;;34.20;18.70;;;;;;;3.28;74.02;99505.20;118788;1148;104457;-71
2020/12/31 07:03:59;;;;;;;29.07;15.60;;;;;;;3.24;72.73;99504.61;118814;1147;104556;-69
2020/12/31 07:06:31;;;;;;;;;;;;;;;3.22;72.92;99503.90;118424;1147;104572;-70
2020/12/31 07:09:02;;;;;;;30.15;13.65;;;;;;;3.25;73.18;99505.44;118377;1147;104641;-71
2020/12/31 07:11:36;;;;;;;28.20;15.30;;;;;;;3.32;73.55;99514.53;118350;1148;104548;-72
2020/12/31 07:14:21;;;;;;;29.60;16.30;;;;;;;3.40;73.81;99511.27;118450;1147;104506;-70
2020/12/31 07:16:58;;;;;;;26.43;13.93;;;;;;;3.46;72.86;99502.85;118773;1147;104535;-71
2020/12/31 07:19:38;;;;;;;29.50;16.27;;;;;;;3.49;73.50;99506.08;118880;1147;104549;-70
2020/12/31 07:22:22;;;;;;;26.47;14.23;;;;;;;3.51;74.18;99504.15;118865;1148;104556;-70
2020/12/31 07:25:04;;;;;;;31.45;19.00;;;;;;;3.53;74.23;99504.03;118845;1147;104476;-69
2020/12/31 07:27:33;;;;;;;35.88;18.90;;;;;;;3.56;73.25;99497.66;118628;1147;104608;-70
2020/12/31 07:30:19;;;;;;;40.07;23.33;;;;;;;3.49;73.52;99506.08;118352;1147;104462;-70
2020/12/31 07:33:01;;;;;;;28.73;15.93;;;;;;;3.48;73.96;99507.06;118819;1148;104562;-70
2020/12/31 07:35:37;;;;;;;29.00;15.57;;;;;;;3.51;73.25;99504.15;118859;1147;104586;-71
2020/12/31 07:38:08;;;;;;;29.83;16.60;;;;;;;3.56;74.01;99500.30;118841;1147;104568;-70
2020/12/31 07:40:44;;;;;;;30.30;15.80;;;;;;;3.60;73.41;99501.70;118870;1147;104549;-70
2020/12/31 07:43:15;;;;;;;30.30;15.43;;;;;;;3.61;73.76;99496.31;118892;1148;104479;-70
2020/12/31 07:45:48;;;;;;;32.23;17.57;;;;;;;3.65;73.84;99503.00;118982;1147;104501;-71
2020/12/31 07:48:17;;;;;;;34.23;18.03;;;;;;;3.64;73.70;99500.52;118755;1147;104620;-72
2020/12/31 07:50:46;;;;;;;30.70;13.80;;;;;;;3.63;73.41;99501.47;118909;1147;104552;-72
2020/12/31 07:53:14;;;;;;;36.87;17.93;;;;;;;3.59;73.75;99492.97;118940;1147;104453;-72
2020/12/31 07:55:48;;;;;;;75.10;37.43;;;;;;;3.58;73.37;99498.36;118976;1147;104554;-69
2020/12/31 07:58:18;;;;;;;45.20;19.05;;;;;;;3.58;73.79;99501.00;118802;1147;104601;-69
2020/12/31 08:00:56;;;;;;;80.30;39.97;;;;;;;3.62;73.85;99507.69;118730;1148;104636;-70
2020/12/31 08:03:25;;;;;;;45.23;19.97;;;;;;;3.63;73.73;99512.02;118894;1148;104549;-70
2020/12/31 08:05:58;;;;;;;82.27;42.40;;;;;;;3.62;72.81;99518.24;118830;1147;104492;-70
2020/12/31 08:08:26;;;;;;;51.23;24.10;;;;;;;3.58;73.14;99515.05;118855;1147;104608;-70
2020/12/31 08:10:55;;;;;;;217.47;102.70;;;;;;;3.50;73.60;99507.77;118845;1147;104476;-69
2020/12/31 08:13:23;;;;;;;198.63;88.13;;;;;;;3.49;73.40;99513.16;118860;1147;104534;-70
2020/12/31 08:15:52;;;;;;;87.00;43.07;;;;;;;3.49;74.05;99523.71;118827;1147;104473;-70
2020/12/31 08:18:22;;;;;;;58.67;26.23;;;;;;;3.58;73.92;99532.66;118866;1147;104823;-70
2020/12/31 08:20:52;;;;;;;59.90;33.20;;;;;;;3.63;73.11;99531.31;118860;1148;104491;-71
2020/12/31 08:23:23;;;;;;;45.73;23.33;;;;;;;3.66;73.15;99527.61;118825;1148;104476;-71
2020/12/31 08:25:52;;;;;;;;;;;;;;;3.66;73.30;99524.97;118896;1147;104575;-70
2020/12/31 08:28:22;;;;;;;42.10;20.87;;;;;;;3.59;72.76;99523.80;118891;1147;104503;-70
2020/12/31 08:30:50;;;;;;;52.27;22.63;;;;;;;3.53;73.58;99531.23;118861;1147;104517;-70
2020/12/31 08:33:24;;;;;;;46.03;18.93;;;;;;;3.52;73.21;99533.99;118914;1147;104450;-70
2020/12/31 08:35:53;;;;;;;55.97;24.63;;;;;;;3.53;73.76;99523.32;118846;1147;104475;-70
2020/12/31 08:38:22;;;;;;;112.23;64.20;;;;;;;3.56;73.61;99526.67;118890;1147;104544;-70
2020/12/31 08:40:52;;;;;;;74.93;38.73;;;;;;;3.60;72.83;99525.45;118484;1146;104546;-71
2020/12/31 08:43:23;;;;;;;52.77;26.23;;;;;;;3.66;73.67;99527.61;118448;1147;104470;-71
2020/12/31 08:45:53;;;;;;;47.30;22.10;;;;;;;3.72;73.65;99530.56;118736;1147;104553;-73
2020/12/31 08:48:25;;;;;;;39.87;18.73;;;;;;;3.80;72.74;99527.28;118852;1147;104626;-70
2020/12/31 08:51:01;;;;;;;37.37;16.83;;;;;;;3.81;72.70;99531.61;118839;1148;104548;-71
2020/12/31 08:53:31;;;;;;;36.67;15.40;;;;;;;3.85;73.44;99530.39;118778;1147;104511;-71
2020/12/31 08:55:59;;;;;;;36.93;14.80;;;;;;;3.90;73.50;99532.63;118395;1147;104551;-70
2020/12/31 08:58:31;;;;;;;33.93;15.80;;;;;;;3.91;72.66;99534.32;118311;1147;104604;-70
2020/12/31 09:01:00;;;;;;;33.27;15.50;;;;;;;3.87;73.03;99538.19;118904;1147;104512;-70
2020/12/31 09:03:28;;;;;;;42.20;22.40;;;;;;;3.86;73.00;99539.14;118867;1147;104454;-73
2020/12/31 09:05:58;;;;;;;42.07;18.17;;;;;;;3.84;72.81;99535.79;119214;1147;104994;-72
2020/12/31 09:08:27;;;;;;;34.77;17.03;;;;;;;3.86;72.76;99537.33;118926;1147;104552;-74
2020/12/31 09:11:06;;;;;;;40.03;19.83;;;;;;;3.88;73.13;99545.12;118922;1147;104593;-74
2020/12/31 09:13:39;;;;;;;39.93;20.00;;;;;;;3.87;72.65;99544.30;118867;1147;104585;-73
2020/12/31 09:16:12;;;;;;;51.10;24.87;;;;;;;3.80;72.56;99545.75;118888;1146;104548;-76
2020/12/31 09:18:41;;;;;;;58.77;25.23;;;;;;;3.83;72.89;99556.07;119018;1147;104639;-73
2020/12/31 09:21:11;;;;;;;52.63;28.33;;;;;;;3.83;73.14;99542.88;119043;1148;104549;-75
2020/12/31 09:23:39;;;;;;;45.93;22.13;;;;;;;3.82;73.39;99546.47;118937;1147;104553;-69
2020/12/31 09:26:08;;;;;;;35.65;17.25;;;;;;;3.85;73.54;99545.36;118814;1147;104477;-70
2020/12/31 09:28:39;;;;;;;45.73;22.80;;;;;;;3.86;73.44;99545.23;118747;1147;104658;-73
2020/12/31 09:31:22;;;;;;;37.03;18.57;;;;;;;3.91;72.89;99543.06;118878;1147;104525;-69
2020/12/31 09:33:51;;;;;;;40.70;18.77;;;;;;;3.97;73.06;99540.89;118694;1147;104478;-73
2020/12/31 09:36:24;;;;;;;40.20;18.65;;;;;;;3.96;72.62;99537.39;118880;1147;104473;-72
2020/12/31 09:38:53;;;;;;;36.10;14.55;;;;;;;3.93;73.41;99541.14;119042;1147;104564;-71
2020/12/31 09:41:21;;;;;;;38.40;16.50;;;;;;;3.91;72.99;99536.95;118977;1147;104470;-71
2020/12/31 09:43:50;;;;;;;54.17;24.83;;;;;;;3.91;73.28;99529.88;118398;1146;105106;-71
2020/12/31 09:46:20;;;;;;;46.20;24.10;;;;;;;3.92;73.54;99531.53;118803;1147;104479;-72
2020/12/31 09:48:51;;;;;;;43.47;20.87;;;;;;;3.99;72.79;99539.78;118464;1148;104609;-70
2020/12/31 09:51:20;;;;;;;51.23;24.75;;;;;;;4.02;73.16;99530.77;118845;1147;104551;-69
2020/12/31 09:53:49;;;;;;;94.73;44.53;;;;;;;4.00;73.21;99537.97;118741;1148;104473;-71
2020/12/31 09:56:18;;;;;;;140.00;63.97;;;;;;;3.95;73.23;99530.45;118804;1147;104448;-71
2020/12/31 09:58:46;;;;;;;164.33;68.10;;;;;;;3.95;73.13;99529.63;118868;1147;104533;-70
2020/12/31 10:01:15;;;;;;;156.10;71.40;;;;;;;4.01;72.52;99531.75;118801;1147;104473;-69
2020/12/31 10:03:43;;;;;;;98.90;46.40;;;;;;;4.03;72.82;99535.09;118853;1147;104486;-70
2020/12/31 10:06:11;;;;;;;62.60;28.97;;;;;;;4.00;72.62;99528.25;118783;1148;104586;-70
2020/12/31 10:08:41;;;;;;;83.20;39.90;;;;;;;3.96;72.53;99526.83;118895;1147;104540;-73
2020/12/31 10:11:09;;;;;;;174.27;79.00;;;;;;;3.98;72.61;99521.44;118965;1147;104541;-73
2020/12/31 10:13:37;;;;;;;123.40;52.23;;;;;;;4.01;73.33;99524.66;118926;1147;104553;-71
2020/12/31 10:16:05;;;;;;;137.90;59.70;;;;;;;4.00;72.59;99525.61;118711;1148;104577;-73
2020/12/31 10:18:34;;;;;;;127.33;55.27;;;;;;;4.01;72.79;99529.11;118933;1147;104597;-71
2020/12/31 10:21:02;;;;;;;133.77;51.03;;;;;;;4.06;73.04;99522.47;119007;1147;104585;-71
2020/12/31 10:23:30;;;;;;;159.53;59.87;;;;;;;4.12;72.48;99526.41;118720;1147;104501;-72
2020/12/31 10:25:58;;;;;;;301.63;148.97;;;;;;;4.15;72.55;99526.13;118621;1147;104540;-75
2020/12/31 10:28:26;;;;;;;123.70;61.43;;;;;;;4.18;72.70;99520.59;118796;1148;104657;-74
2020/12/31 10:30:54;;;;;;;78.95;34.85;;;;;;;4.21;72.18;99528.23;118892;1147;104516;-75
2020/12/31 10:33:22;;;;;;;90.60;47.45;;;;;;;4.24;72.72;99524.52;118898;1147;104552;-71
2020/12/31 10:35:50;;;;;;;76.23;39.70;;;;;;;4.26;72.32;99525.23;118991;1147;104546;-71
2020/12/31 10:38:19;;;;;;;67.20;34.17;;;;;;;4.21;72.30;99530.88;118761;1147;104678;-73
2020/12/31 10:40:47;;;;;;;48.43;24.20;;;;;;;4.14;72.20;99529.75;118511;1147;104508;-76
2020/12/31 10:43:15;;;;;;;44.80;20.17;;;;;;;4.12;72.31;99521.13;118936;1147;104547;-69
2020/12/31 10:45:43;;;;;;;48.90;21.53;;;;;;;4.12;72.60;99518.48;118743;1147;104462;-72
2020/12/31 10:48:13;;;;;;;49.07;24.63;;;;;;;4.16;72.62;99517.25;118971;1147;104647;-71
2020/12/31 10:50:41;;;;;;;48.57;27.13;;;;;;;4.19;72.52;99511.69;118952;1146;104535;-71
2020/12/31 10:53:09;;;;;;;57.00;32.17;;;;;;;4.20;72.31;99518.66;118858;1147;104558;-71
2020/12/31 10:55:37;;;;;;;56.00;30.30;;;;;;;4.23;72.36;99513.09;118524;1146;104455;-71
2020/12/31 10:58:05;;;;;;;43.60;20.67;;;;;;;4.24;72.18;99514.78;118715;1147;104635;-72
2020/12/31 11:00:34;;;;;;;46.33;23.33;;;;;;;4.25;72.27;99512.97;118867;1148;104528;-71
2020/12/31 11:03:02;;;;;;;53.20;30.00;;;;;;;4.27;72.45;99506.61;118966;1148;104563;-71
2020/12/31 11:05:30;;;;;;;44.00;23.93;;;;;;;4.27;72.32;99503.97;118601;1147;104550;-82
2020/12/31 11:07:58;;;;;;;56.30;28.05;;;;;;;4.26;71.91;99510.20;118469;1147;104572;-72
2020/12/31 11:10:26;;;;;;;48.47;21.43;;;;;;;4.28;72.19;99504.80;118700;1147;104528;-72
2020/12/31 11:12:54;;;;;;;42.87;19.03;;;;;;;4.29;72.47;99501.17;118663;1147;104946;-77
2020/12/31 11:15:22;;;;;;;44.07;22.47;;;;;;;4.29;72.62;99502.03;118617;1147;104549;-72
2020/12/31 11:17:50;;;;;;;43.73;20.17;;;;;;;4.32;72.29;99491.19;118535;1146;104556;-78
2020/12/31 11:20:56;;;;;;;39.77;18.87;;;;;;;4.29;72.42;99491.47;118746;1147;104905;-79
2020/12/31 11:23:24;;;;;;;57.65;31.50;;;;;;;4.31;72.53;99502.73;118883;1147;104546;-78